Stations météo

réclame
Mon MeteoGroup
Glen Ogle, Grande-Bretagne (3148): Température de l'air & dewpoint: 19.11.2017 01:00:00 - 25.11.2017 01:00:00 (GMT)Glen Ogle, Grande-Bretagne (3148): Vitesse du vent & gusts: 19.11.2017 01:00:00 - 25.11.2017 01:00:00 (GMT)Glen Ogle, Grande-Bretagne (3148): Direction du vent: 19.11.2017 01:00:00 - 25.11.2017 01:00:00 (GMT)
Date & Time tt [°C] td [°C] ff [km/h] ff [knt] fx [km/h] fx [knt] dd
25.11.2017 01:00:00 -1,8 -1,8 29 16 - - W
25.11.2017 00:00:00 -1,9 -1,9 28 15 - - W
24.11.2017 23:00:00 -2,0 -2,0 26 14 - - W
24.11.2017 22:00:00 -2,0 -2,0 22 12 - - W
24.11.2017 21:00:00 -1,9 -2,1 28 15 - - W
24.11.2017 20:00:00 -1,9 -1,9 29 16 - - W
24.11.2017 19:00:00 -2,1 -2,1 29 16 48 26 W
24.11.2017 18:00:00 -2,1 -2,1 31 17 48 26 W
24.11.2017 17:00:00 -2,1 -2,1 29 16 - - W
24.11.2017 16:00:00 -2,5 -2,5 22 12 - - W
24.11.2017 15:00:00 -1,6 -3,5 31 17 48 26 W
24.11.2017 14:00:00 -1,9 -3,8 28 15 - - W
24.11.2017 13:00:00 -1,7 -5,0 26 14 - - WSW
24.11.2017 12:00:00 -2,2 -3,6 34 18 57 31 W
24.11.2017 11:00:00 -1,4 -1,8 42 23 63 34 S
24.11.2017 10:00:00 -1,5 -2,5 34 18 46 25 SSW
24.11.2017 09:00:00 -1,8 -2,0 13 7 - - SW
24.11.2017 08:00:00 -2,3 -2,3 11 6 - - WSW
24.11.2017 07:00:00 -2,3 -2,3 16 9 - - W
24.11.2017 06:00:00 -2,7 -2,7 26 14 - - W
24.11.2017 05:00:00 -2,7 -2,7 22 12 - - WNW
24.11.2017 04:00:00 -2,5 -2,5 24 13 - - W
24.11.2017 03:00:00 -2,3 -2,3 11 6 - - W
24.11.2017 02:00:00 -2,0 -2,3 16 9 - - W
24.11.2017 01:00:00 -2,1 -2,3 18 10 - - W
24.11.2017 00:00:00 -1,7 -2,2 22 12 - - W
23.11.2017 23:00:00 -1,9 -2,1 29 16 - - W
23.11.2017 22:00:00 -1,4 -1,4 21 11 - - W
23.11.2017 21:00:00 -1,3 -1,3 28 15 - - WNW
23.11.2017 20:00:00 -0,9 -1,4 28 15 - - W
23.11.2017 19:00:00 -1,1 -1,1 28 15 - - W
23.11.2017 18:00:00 -0,8 -1,5 22 12 - - W
23.11.2017 17:00:00 -1,0 -1,5 29 16 - - W
23.11.2017 16:00:00 -0,3 -1,2 22 12 - - W
23.11.2017 15:00:00 -0,1 -1,6 24 13 - - W
23.11.2017 14:00:00 -0,4 -4,6 31 17 - - NW
23.11.2017 13:00:00 -0,9 -6,2 22 12 - - WNW
23.11.2017 12:00:00 -1,3 -3,7 15 8 - - NW
23.11.2017 11:00:00 -1,3 -2,9 29 16 - - NW
23.11.2017 10:00:00 -1,3 -1,3 21 11 - - W
23.11.2017 09:00:00 -1,2 -1,2 16 9 - - WNW
23.11.2017 08:00:00 -1,4 -1,4 15 8 - - W
23.11.2017 07:00:00 -1,6 -1,9 22 12 - - W
23.11.2017 06:00:00 -1,3 -1,3 26 14 - - W
23.11.2017 05:00:00 -1,0 -1,0 18 10 - - W
23.11.2017 04:00:00 -1,0 -1,0 29 16 46 25 W
23.11.2017 03:00:00 -0,8 -0,8 22 12 - - W
23.11.2017 02:00:00 -0,6 -0,6 13 7 - - WNW
23.11.2017 01:00:00 -0,9 -0,9 8 4 - - NW
23.11.2017 00:00:00 -0,3 -0,3 9 5 - - N
22.11.2017 23:00:00 -0,1 -0,2 2 1 - - SW
22.11.2017 22:00:00 0,1 0,1 5 3 - - N
22.11.2017 21:00:00 0,2 0,2 8 4 - - NNE
22.11.2017 20:00:00 0,5 0,1 9 5 - - E
22.11.2017 19:00:00 0,6 0,5 15 8 - - ENE
22.11.2017 18:00:00 0,2 0,2 8 4 - - NNW
22.11.2017 17:00:00 0,3 0,3 9 5 - - NNW
22.11.2017 16:00:00 0,2 0,2 11 6 - - N
22.11.2017 15:00:00 0,2 0,2 11 6 - - NNW
22.11.2017 14:00:00 0,4 0,4 11 6 - - N
22.11.2017 13:00:00 0,2 0,1 9 5 - - N
22.11.2017 12:00:00 0,8 0,2 11 6 - - NW
22.11.2017 11:00:00 1,5 1,1 4 2 - - NNW
22.11.2017 10:00:00 1,4 1,2 5 3 - - W
22.11.2017 09:00:00 1,4 1,4 11 6 - - W
22.11.2017 08:00:00 1,6 1,6 22 12 - - W
22.11.2017 07:00:00 1,9 1,9 29 16 - - W
22.11.2017 06:00:00 2,4 2,4 35 19 - - W
22.11.2017 05:00:00 2,7 2,7 39 21 48 26 W
22.11.2017 04:00:00 3,1 3,1 39 21 52 28 W
22.11.2017 03:00:00 3,3 3,2 37 20 50 27 W
22.11.2017 02:00:00 3,7 3,7 42 23 67 36 W
22.11.2017 01:00:00 4,1 4,1 54 29 67 36 W
22.11.2017 00:00:00 4,7 4,7 44 24 55 30 W
21.11.2017 23:00:00 6,1 6,1 35 19 57 31 WSW
21.11.2017 22:00:00 8,7 8,2 37 20 67 36 WSW
21.11.2017 21:00:00 9,6 8,6 37 20 67 36 SW
21.11.2017 20:00:00 9,3 9,0 39 21 68 37 SSW
21.11.2017 19:00:00 9,1 8,7 50 27 70 38 SSW
21.11.2017 18:00:00 8,8 8,7 42 23 72 39 SSW
21.11.2017 17:00:00 8,2 8,2 35 19 67 36 S
21.11.2017 16:00:00 7,5 7,4 41 22 74 40 SSW
21.11.2017 15:00:00 6,6 6,6 48 26 65 35 S
21.11.2017 14:00:00 5,8 5,8 26 14 - - S
21.11.2017 13:00:00 5,8 5,8 16 9 - - S
21.11.2017 12:00:00 5,2 5,2 22 12 - - SSE
21.11.2017 11:00:00 4,7 4,7 21 11 - - SSE
21.11.2017 10:00:00 5,2 5,2 15 8 - - SSE
21.11.2017 09:00:00 4,9 4,9 15 8 - - SSE
21.11.2017 08:00:00 4,9 4,9 15 8 - - SSE
21.11.2017 07:00:00 3,9 3,9 4 2 - - WSW
21.11.2017 06:00:00 4,4 4,4 4 2 - - SSE
21.11.2017 05:00:00 4,0 4,0 4 2 - - SE
21.11.2017 04:00:00 3,8 3,8 11 6 - - ESE
21.11.2017 03:00:00 3,8 3,8 4 2 - - S
21.11.2017 02:00:00 4,1 4,1 11 6 - - SE
21.11.2017 01:00:00 4,0 4,0 4 2 - - SE
21.11.2017 00:00:00 4,0 4,0 11 6 - - SE
20.11.2017 23:00:00 3,9 3,9 8 4 - - SSE
20.11.2017 22:00:00 3,9 3,9 13 7 - - ESE
20.11.2017 21:00:00 3,8 3,8 8 4 - - SE
20.11.2017 20:00:00 3,8 3,8 9 5 - - SE
20.11.2017 19:00:00 3,8 3,8 9 5 - - SE
20.11.2017 18:00:00 3,8 3,8 13 7 - - SE
20.11.2017 17:00:00 3,8 3,8 15 8 - - ESE
20.11.2017 16:00:00 3,6 3,5 5 3 - - S
20.11.2017 15:00:00 3,5 2,4 4 2 - - SW
20.11.2017 14:00:00 3,4 2,6 5 3 - - SSE
20.11.2017 13:00:00 3,2 1,4 4 2 - - SW
20.11.2017 12:00:00 2,5 1,8 2 1 - - SW
20.11.2017 11:00:00 1,9 1,9 4 2 - - NNW
20.11.2017 10:00:00 1,5 1,5 2 1 - - NNE
20.11.2017 09:00:00 1,1 1,1 2 1 - - W
20.11.2017 08:00:00 1,1 1,1 11 6 - - E
20.11.2017 07:00:00 0,8 0,8 13 7 - - ESE
20.11.2017 06:00:00 0,6 0,6 9 5 - - SE
20.11.2017 05:00:00 0,5 0,5 26 14 - - ESE
20.11.2017 04:00:00 0,3 0,3 29 16 - - ESE
20.11.2017 03:00:00 0,1 0,1 31 17 - - ESE
20.11.2017 02:00:00 0,1 0,1 26 14 - - SE
20.11.2017 01:00:00 0,2 0,2 22 12 - - SE
20.11.2017 00:00:00 0,2 0,2 8 4 - - SSE
19.11.2017 23:00:00 0,0 0,0 15 8 - - SSE
19.11.2017 22:00:00 0,2 0,2 15 8 - - SSE
19.11.2017 21:00:00 0,3 0,3 18 10 - - SSE
19.11.2017 20:00:00 0,2 0,1 13 7 - - SE
19.11.2017 19:00:00 1,3 -0,1 15 8 - - S
19.11.2017 18:00:00 1,3 -1,2 5 3 - - SSE
19.11.2017 17:00:00 1,1 -1,1 5 3 - - S
19.11.2017 16:00:00 0,6 -0,5 5 3 - - NW
19.11.2017 15:00:00 0,7 -0,6 9 5 - - W
19.11.2017 14:00:00 0,8 -2,1 5 3 - - WNW
19.11.2017 13:00:00 0,4 -2,4 5 3 - - WNW
19.11.2017 12:00:00 0,4 -2,9 8 4 - - NW
19.11.2017 11:00:00 0,6 -3,7 8 4 - - W
19.11.2017 10:00:00 0,3 -7,5 5 3 - - WNW
19.11.2017 09:00:00 0,0 -1,4 9 5 - - NNW
19.11.2017 08:00:00 -0,5 -1,1 9 5 - - WNW
19.11.2017 07:00:00 -0,2 -0,8 13 7 - - WNW
19.11.2017 06:00:00 -0,1 -1,0 21 11 - - WNW
19.11.2017 05:00:00 0,1 -1,2 18 10 - - WNW
19.11.2017 04:00:00 0,3 -1,4 21 11 - - WNW
19.11.2017 03:00:00 0,6 -1,2 21 11 - - W
19.11.2017 02:00:00 0,5 -1,9 22 12 - - WNW
19.11.2017 01:00:00 0,5 -2,3 21 11 - - WNW

tt = Température de l'air
td = dewpoint
ff = Vitesse du vent
fx = gusts
dd = Direction du vent

stations d'obs. à proximité